RFF9986 UUMU-OSLK
Flight info
| Callsign | RFF9986 |
|---|---|
| Flight time | N/A |
| Altitude | 35000 |
| Route | K0850F350 DCT TOGMO M56 ABAGI B105 NIMTA B105 WGD G481 ELI A964 STW ADNET N166 TUDEK R114 TBN W88 EZS W701 GAZ B36 TUSYR B544 ALE W6 BAN DCT |
| Aircraft | T154/M-VGD/A |
Departure
| Time | 2026-04-20 22:24 |
|---|---|
| Airport | Chkalovskiy Air Base (UUMU) |
Arrival
| Time | N/A |
|---|---|
| Airport | Latakia International Airport (OSLK) |
| Time | Latitude | Longitude | Altitude | Speed | Heading |
|---|---|---|---|---|---|
| 2026-04-20 21:56 | 55.89118 | 38.05028 | 509 ft | 0 kts | 310° |
| 2026-04-20 22:10 | 55.89124 | 38.05016 | 509 ft | 3 kts | 310° |
| 2026-04-20 22:10 | 55.89136 | 38.04991 | 509 ft | 1 kts | 310° |
| 2026-04-20 22:11 | 55.89151 | 38.04951 | 509 ft | 5 kts | 287° |
| 2026-04-20 22:11 | 55.89138 | 38.04893 | 509 ft | 5 kts | 230° |
| 2026-04-20 22:11 | 55.89099 | 38.04826 | 509 ft | 9 kts | 221° |
| 2026-04-20 22:11 | 55.89051 | 38.04752 | 509 ft | 8 kts | 220° |
| 2026-04-20 22:12 | 55.89009 | 38.04690 | 509 ft | 7 kts | 219° |
| 2026-04-20 22:12 | 55.88974 | 38.04638 | 509 ft | 5 kts | 219° |
| 2026-04-20 22:12 | 55.88945 | 38.04598 | 509 ft | 4 kts | 218° |
| 2026-04-20 22:12 | 55.88908 | 38.04557 | 509 ft | 9 kts | 192° |
| 2026-04-20 22:13 | 55.88846 | 38.04622 | 509 ft | 12 kts | 133° |
| 2026-04-20 22:13 | 55.88791 | 38.04734 | 509 ft | 11 kts | 130° |
| 2026-04-20 22:13 | 55.88742 | 38.04837 | 509 ft | 10 kts | 130° |
| 2026-04-20 22:13 | 55.88699 | 38.04927 | 509 ft | 8 kts | 129° |
| 2026-04-20 22:14 | 55.88663 | 38.05005 | 509 ft | 7 kts | 129° |
| 2026-04-20 22:14 | 55.88618 | 38.05106 | 509 ft | 13 kts | 128° |
| 2026-04-20 22:14 | 55.88528 | 38.05292 | 509 ft | 22 kts | 130° |
| 2026-04-20 22:14 | 55.88427 | 38.05500 | 509 ft | 21 kts | 131° |
| 2026-04-20 22:15 | 55.88367 | 38.05619 | 509 ft | 20 kts | 131° |
| 2026-04-20 22:15 | 55.88277 | 38.05800 | 509 ft | 18 kts | 130° |
| 2026-04-20 22:15 | 55.88196 | 38.05971 | 509 ft | 17 kts | 130° |
| 2026-04-20 22:15 | 55.88122 | 38.06130 | 509 ft | 16 kts | 130° |
| 2026-04-20 22:16 | 55.88052 | 38.06276 | 509 ft | 14 kts | 130° |
| 2026-04-20 22:16 | 55.87989 | 38.06408 | 509 ft | 13 kts | 130° |
| 2026-04-20 22:16 | 55.87931 | 38.06528 | 509 ft | 12 kts | 130° |
| 2026-04-20 22:16 | 55.87880 | 38.06637 | 509 ft | 10 kts | 130° |
| 2026-04-20 22:17 | 55.87833 | 38.06733 | 509 ft | 9 kts | 132° |
| 2026-04-20 22:17 | 55.87791 | 38.06815 | 509 ft | 8 kts | 132° |
| 2026-04-20 22:17 | 55.87755 | 38.06888 | 509 ft | 7 kts | 130° |
| 2026-04-20 22:17 | 55.87726 | 38.06950 | 509 ft | 5 kts | 130° |
| 2026-04-20 22:18 | 55.87703 | 38.07000 | 509 ft | 4 kts | 130° |
| 2026-04-20 22:18 | 55.87685 | 38.07036 | 509 ft | 3 kts | 130° |
| 2026-04-20 22:18 | 55.87670 | 38.07069 | 509 ft | 4 kts | 130° |
| 2026-04-20 22:18 | 55.87628 | 38.07155 | 509 ft | 15 kts | 131° |
| 2026-04-20 22:19 | 55.87551 | 38.07311 | 509 ft | 14 kts | 130° |
| 2026-04-20 22:19 | 55.87505 | 38.07381 | 509 ft | 5 kts | 174° |
| 2026-04-20 22:19 | 55.87472 | 38.07379 | 509 ft | 6 kts | 188° |
| 2026-04-20 22:19 | 55.87399 | 38.07363 | 509 ft | 13 kts | 186° |
| 2026-04-20 22:20 | 55.87312 | 38.07347 | 509 ft | 11 kts | 186° |
| 2026-04-20 22:20 | 55.87235 | 38.07333 | 509 ft | 10 kts | 185° |
| 2026-04-20 22:20 | 55.87167 | 38.07353 | 509 ft | 9 kts | 152° |
| 2026-04-20 22:20 | 55.87118 | 38.07433 | 509 ft | 12 kts | 132° |
| 2026-04-20 22:21 | 55.87051 | 38.07568 | 509 ft | 15 kts | 130° |
| 2026-04-20 22:21 | 55.86978 | 38.07730 | 509 ft | 17 kts | 127° |
| 2026-04-20 22:21 | 55.86900 | 38.07913 | 509 ft | 17 kts | 126° |
| 2026-04-20 22:21 | 55.86847 | 38.08049 | 509 ft | 10 kts | 116° |
| 2026-04-20 22:22 | 55.86813 | 38.08126 | 509 ft | 4 kts | 179° |
| 2026-04-20 22:22 | 55.86804 | 38.08089 | 509 ft | 3 kts | 290° |
| 2026-04-20 22:22 | 55.86814 | 38.08064 | 509 ft | 1 kts | 310° |
| 2026-04-20 22:22 | 55.86819 | 38.08052 | 509 ft | 0 kts | 310° |
| 2026-04-20 22:23 | 55.86821 | 38.08049 | 509 ft | 0 kts | 310° |
| 2026-04-20 22:23 | 55.86823 | 38.08045 | 509 ft | 0 kts | 310° |
| 2026-04-20 22:23 | 55.86855 | 38.07979 | 509 ft | 26 kts | 310° |
| 2026-04-20 22:23 | 55.87139 | 38.07390 | 509 ft | 97 kts | 310° |
| 2026-04-20 22:24 | 55.87722 | 38.06180 | 513 ft | 156 kts | 312° |
| 2026-04-20 22:24 | 55.88471 | 38.04643 | 923 ft | 170 kts | 310° |
| 2026-04-20 22:24 | 55.89232 | 38.02931 | 1353 ft | 189 kts | 308° |
| 2026-04-20 22:24 | 55.90062 | 38.00962 | 1818 ft | 211 kts | 307° |
| 2026-04-20 22:25 | 55.90977 | 37.98732 | 2323 ft | 238 kts | 309° |
| 2026-04-20 22:25 | 55.92145 | 37.97010 | 3307 ft | 238 kts | 333° |
| 2026-04-20 22:25 | 55.93773 | 37.96120 | 4133 ft | 250 kts | 358° |
| 2026-04-20 22:25 | 55.95430 | 37.96547 | 5142 ft | 251 kts | 21° |
| 2026-04-20 22:26 | 55.96899 | 37.98164 | 6106 ft | 254 kts | 45° |
| 2026-04-20 22:26 | 55.98081 | 38.00510 | 7019 ft | 258 kts | 44° |
| 2026-04-20 22:26 | 55.99384 | 38.02664 | 7947 ft | 261 kts | 41° |
| 2026-04-20 22:27 | 56.01430 | 38.07949 | 9704 ft | 269 kts | 78° |
| 2026-04-20 22:27 | 56.01503 | 38.11245 | 10550 ft | 272 kts | 100° |
| 2026-04-20 22:27 | 56.00865 | 38.14412 | 11370 ft | 276 kts | 122° |
| 2026-04-20 22:27 | 55.99716 | 38.17159 | 12211 ft | 279 kts | 130° |
| 2026-04-20 22:28 | 55.98452 | 38.19804 | 13017 ft | 282 kts | 130° |
| 2026-04-20 22:28 | 55.97166 | 38.22446 | 13818 ft | 286 kts | 131° |
| 2026-04-20 22:28 | 55.95874 | 38.25094 | 14585 ft | 289 kts | 130° |
| 2026-04-20 22:28 | 55.94539 | 38.27825 | 15116 ft | 293 kts | 131° |
| 2026-04-20 22:29 | 55.93217 | 38.30525 | 15691 ft | 293 kts | 131° |
| 2026-04-20 22:29 | 55.91861 | 38.33290 | 16021 ft | 304 kts | 131° |
| 2026-04-20 22:29 | 55.90432 | 38.36201 | 16203 ft | 319 kts | 131° |
| 2026-04-20 22:29 | 55.88931 | 38.39255 | 16483 ft | 331 kts | 130° |
| 2026-04-20 22:30 | 55.87614 | 38.42633 | 16824 ft | 339 kts | 115° |
| 2026-04-20 22:30 | 55.86838 | 38.46634 | 17238 ft | 345 kts | 99° |
| 2026-04-20 22:30 | 55.86505 | 38.50833 | 17696 ft | 349 kts | 96° |
| 2026-04-20 22:30 | 55.86264 | 38.55165 | 18172 ft | 353 kts | 94° |
| 2026-04-20 22:31 | 55.86084 | 38.59572 | 18667 ft | 356 kts | 93° |
| 2026-04-20 22:31 | 55.85924 | 38.63967 | 19168 ft | 359 kts | 93° |
| 2026-04-20 22:31 | 55.85773 | 38.68389 | 19623 ft | 363 kts | 94° |
| 2026-04-20 22:31 | 55.85625 | 38.72880 | 20046 ft | 367 kts | 93° |
| 2026-04-20 22:32 | 55.85488 | 38.77452 | 20500 ft | 370 kts | 94° |
| 2026-04-20 22:32 | 55.85088 | 38.81821 | 20931 ft | 372 kts | 108° |
| 2026-04-20 22:32 | 55.83998 | 38.86008 | 21369 ft | 375 kts | 124° |
| 2026-04-20 22:32 | 55.82302 | 38.89506 | 21807 ft | 377 kts | 139° |
| 2026-04-20 22:33 | 55.80196 | 38.92169 | 22252 ft | 378 kts | 152° |
| 2026-04-20 22:33 | 55.77752 | 38.93844 | 22682 ft | 380 kts | 168° |
| 2026-04-20 22:33 | 55.75133 | 38.94293 | 23108 ft | 381 kts | 183° |
| 2026-04-20 22:33 | 55.72516 | 38.93474 | 23539 ft | 382 kts | 199° |
| 2026-04-20 22:34 | 55.70040 | 38.91911 | 23988 ft | 383 kts | 197° |
| 2026-04-20 22:34 | 55.67440 | 38.90859 | 24448 ft | 383 kts | 189° |
| 2026-04-20 22:34 | 55.64808 | 38.90112 | 24898 ft | 384 kts | 189° |
| 2026-04-20 22:34 | 55.62217 | 38.89369 | 25324 ft | 385 kts | 189° |
| 2026-04-20 22:35 | 55.59614 | 38.88397 | 25745 ft | 385 kts | 198° |
| 2026-04-20 22:35 | 55.57140 | 38.86726 | 26192 ft | 385 kts | 202° |
| 2026-04-20 22:35 | 55.54675 | 38.84906 | 26611 ft | 385 kts | 202° |
| 2026-04-20 22:35 | 55.52202 | 38.83135 | 27016 ft | 386 kts | 201° |
| 2026-04-20 22:36 | 55.49685 | 38.81457 | 27412 ft | 386 kts | 195° |
| 2026-04-20 22:36 | 55.47073 | 38.80692 | 27796 ft | 386 kts | 182° |
| 2026-04-20 22:36 | 55.44378 | 38.80628 | 27843 ft | 397 kts | 180° |
| 2026-04-20 22:36 | 55.41583 | 38.80582 | 27926 ft | 404 kts | 181° |
| 2026-04-20 22:37 | 55.38741 | 38.80432 | 28156 ft | 410 kts | 182° |
| 2026-04-20 22:37 | 55.35901 | 38.80201 | 28582 ft | 409 kts | 183° |
| 2026-04-20 22:37 | 55.32059 | 38.79829 | 28981 ft | 412 kts | 183° |
| 2026-04-20 22:38 | 55.29216 | 38.79537 | 29253 ft | 416 kts | 184° |
| 2026-04-20 22:38 | 55.26329 | 38.79238 | 29595 ft | 416 kts | 184° |
| 2026-04-20 22:38 | 55.23437 | 38.78876 | 29860 ft | 419 kts | 188° |
| 2026-04-20 22:38 | 55.20621 | 38.77609 | 30139 ft | 420 kts | 202° |
| 2026-04-20 22:39 | 55.18058 | 38.75198 | 30384 ft | 422 kts | 215° |
| 2026-04-20 22:39 | 55.15652 | 38.72252 | 30657 ft | 424 kts | 216° |
| 2026-04-20 22:39 | 55.13263 | 38.69253 | 30831 ft | 428 kts | 216° |
| 2026-04-20 22:39 | 55.10802 | 38.66291 | 30929 ft | 434 kts | 209° |
| 2026-04-20 22:40 | 55.08028 | 38.64213 | 30900 ft | 441 kts | 196° |
| 2026-04-20 22:40 | 55.05006 | 38.63307 | 30901 ft | 444 kts | 182° |
| 2026-04-20 22:40 | 55.01927 | 38.63650 | 30903 ft | 445 kts | 169° |
| 2026-04-20 22:40 | 54.98919 | 38.64788 | 30893 ft | 448 kts | 168° |
| 2026-04-20 22:41 | 54.92809 | 38.67122 | 30867 ft | 450 kts | 168° |
| 2026-04-20 22:41 | 54.86710 | 38.69453 | 30855 ft | 451 kts | 168° |
| 2026-04-20 22:42 | 54.80588 | 38.71786 | 30861 ft | 452 kts | 168° |
| 2026-04-20 22:42 | 54.74515 | 38.74102 | 30866 ft | 452 kts | 168° |
| 2026-04-20 22:43 | 54.68387 | 38.76433 | 30860 ft | 453 kts | 168° |
| 2026-04-20 22:43 | 54.62237 | 38.78772 | 30863 ft | 453 kts | 167° |
| 2026-04-20 22:44 | 54.59289 | 38.80537 | 30872 ft | 451 kts | 154° |
| 2026-04-20 22:44 | 54.56606 | 38.83318 | 30887 ft | 451 kts | 146° |
| 2026-04-20 22:44 | 54.51405 | 38.89356 | 30873 ft | 452 kts | 147° |
| 2026-04-20 22:45 | 54.46075 | 38.95054 | 30865 ft | 453 kts | 149° |
| 2026-04-20 22:45 | 54.40723 | 39.00612 | 30861 ft | 453 kts | 147° |
| 2026-04-20 22:46 | 54.38287 | 39.04031 | 30868 ft | 452 kts | 133° |
| 2026-04-20 22:46 | 54.36372 | 39.08293 | 30867 ft | 451 kts | 120° |
| 2026-04-20 22:46 | 54.35088 | 39.13118 | 30869 ft | 450 kts | 107° |
| 2026-04-20 22:46 | 54.34284 | 39.18332 | 30869 ft | 450 kts | 104° |
| 2026-04-20 22:47 | 54.32447 | 39.28538 | 30870 ft | 451 kts | 110° |
| 2026-04-20 22:47 | 54.30201 | 39.38351 | 30866 ft | 452 kts | 112° |
| 2026-04-20 22:48 | 54.27786 | 39.48328 | 30861 ft | 453 kts | 112° |
| 2026-04-20 22:48 | 54.25367 | 39.58210 | 30864 ft | 453 kts | 112° |
| 2026-04-20 22:49 | 54.22963 | 39.67994 | 30850 ft | 454 kts | 113° |
| 2026-04-20 22:49 | 54.20583 | 39.77662 | 30856 ft | 454 kts | 113° |
| 2026-04-20 22:50 | 54.18130 | 39.87566 | 30861 ft | 454 kts | 113° |
| 2026-04-20 22:50 | 54.15658 | 39.97489 | 30865 ft | 454 kts | 113° |
| 2026-04-20 22:51 | 54.13179 | 40.07394 | 30900 ft | 453 kts | 113° |
| 2026-04-20 22:51 | 54.10815 | 40.17309 | 30901 ft | 453 kts | 107° |
| 2026-04-20 22:52 | 54.09145 | 40.27671 | 30897 ft | 454 kts | 105° |
| 2026-04-20 22:52 | 54.07427 | 40.37993 | 30897 ft | 454 kts | 106° |
| 2026-04-20 22:53 | 54.05644 | 40.48270 | 30893 ft | 454 kts | 106° |
| 2026-04-20 22:53 | 54.03836 | 40.58549 | 30890 ft | 454 kts | 106° |
| 2026-04-20 22:54 | 54.02199 | 40.67812 | 30880 ft | 455 kts | 107° |
| 2026-04-20 22:54 | 54.00381 | 40.78066 | 30888 ft | 455 kts | 107° |
| 2026-04-20 22:55 | 53.98537 | 40.88389 | 30890 ft | 455 kts | 107° |
| 2026-04-20 22:55 | 53.96704 | 40.98580 | 30893 ft | 455 kts | 107° |
| 2026-04-20 22:56 | 53.94887 | 41.08847 | 30900 ft | 454 kts | 105° |
| 2026-04-20 22:56 | 53.93224 | 41.19189 | 30897 ft | 455 kts | 105° |
| 2026-04-20 22:57 | 53.91538 | 41.29526 | 30892 ft | 455 kts | 105° |
| 2026-04-20 22:57 | 53.89863 | 41.39647 | 30890 ft | 455 kts | 105° |
| 2026-04-20 22:58 | 53.88854 | 41.45608 | 30891 ft | 455 kts | 105° |
| 2026-04-20 22:58 | 53.87904 | 41.51204 | 30892 ft | 455 kts | 105° |
| 2026-04-20 22:59 | 53.87012 | 41.56479 | 30898 ft | 455 kts | 105° |
| 2026-04-20 22:59 | 53.86008 | 41.62425 | 30881 ft | 455 kts | 105° |
| 2026-04-20 23:00 | 53.84743 | 41.69923 | 30799 ft | 457 kts | 106° |
| 2026-04-20 23:00 | 53.83036 | 41.80002 | 30725 ft | 458 kts | 106° |
| 2026-04-20 23:01 | 53.81259 | 41.90374 | 30686 ft | 458 kts | 106° |
| 2026-04-20 23:01 | 53.79521 | 42.00450 | 30701 ft | 457 kts | 106° |
| 2026-04-20 23:02 | 53.77740 | 42.10724 | 30800 ft | 454 kts | 106° |
| 2026-04-20 23:02 | 53.75957 | 42.20950 | 30899 ft | 453 kts | 106° |
| 2026-04-20 23:03 | 53.74166 | 42.31158 | 30892 ft | 454 kts | 106° |
| 2026-04-20 23:03 | 53.72368 | 42.41358 | 30894 ft | 454 kts | 106° |
| 2026-04-20 23:04 | 53.70557 | 42.51567 | 30896 ft | 454 kts | 106° |
| 2026-04-20 23:04 | 53.68662 | 42.61742 | 30890 ft | 454 kts | 112° |
| 2026-04-20 23:05 | 53.67136 | 42.66345 | 30893 ft | 453 kts | 127° |
| 2026-04-20 23:05 | 53.65007 | 42.70278 | 30899 ft | 452 kts | 140° |
| 2026-04-20 23:05 | 53.62447 | 42.73244 | 30897 ft | 451 kts | 153° |
| 2026-04-20 23:05 | 53.59522 | 42.75204 | 30907 ft | 451 kts | 163° |
| 2026-04-20 23:06 | 53.53554 | 42.78319 | 30898 ft | 452 kts | 160° |
| 2026-04-20 23:06 | 53.47724 | 42.82165 | 30891 ft | 453 kts | 158° |
| 2026-04-20 23:07 | 53.41924 | 42.86283 | 30892 ft | 454 kts | 157° |
| 2026-04-20 23:07 | 53.36120 | 42.90438 | 30893 ft | 454 kts | 157° |
| 2026-04-20 23:08 | 53.30341 | 42.94565 | 30890 ft | 455 kts | 157° |
| 2026-04-20 23:08 | 53.24531 | 42.98702 | 30892 ft | 455 kts | 157° |
| 2026-04-20 23:09 | 53.18726 | 43.02823 | 30897 ft | 455 kts | 157° |
| 2026-04-20 23:09 | 53.12896 | 43.06950 | 30891 ft | 455 kts | 157° |
| 2026-04-20 23:10 | 53.07158 | 43.11212 | 30891 ft | 456 kts | 155° |
| 2026-04-20 23:10 | 53.01373 | 43.15542 | 30894 ft | 456 kts | 156° |
| 2026-04-20 23:11 | 52.95612 | 43.19816 | 30891 ft | 456 kts | 156° |
| 2026-04-20 23:11 | 52.89818 | 43.24094 | 30894 ft | 456 kts | 156° |
| 2026-04-20 23:12 | 52.84153 | 43.28245 | 30899 ft | 456 kts | 156° |
| 2026-04-20 23:12 | 52.78368 | 43.32481 | 30894 ft | 456 kts | 156° |
| 2026-04-20 23:13 | 52.72584 | 43.36713 | 30854 ft | 457 kts | 156° |
| 2026-04-20 23:13 | 52.66817 | 43.40921 | 30862 ft | 457 kts | 156° |
| 2026-04-20 23:14 | 52.61019 | 43.45141 | 30862 ft | 457 kts | 156° |
| 2026-04-20 23:14 | 52.55209 | 43.49356 | 30860 ft | 457 kts | 156° |
| 2026-04-20 23:15 | 52.49431 | 43.53537 | 30865 ft | 456 kts | 156° |
| 2026-04-20 23:15 | 52.43610 | 43.57737 | 30866 ft | 456 kts | 156° |
| 2026-04-20 23:16 | 52.37835 | 43.61891 | 30867 ft | 456 kts | 156° |
| 2026-04-20 23:16 | 52.32041 | 43.66050 | 30859 ft | 457 kts | 156° |
| 2026-04-20 23:17 | 52.26229 | 43.70237 | 30866 ft | 456 kts | 156° |
| 2026-04-20 23:17 | 52.20423 | 43.74388 | 30862 ft | 457 kts | 156° |
| 2026-04-20 23:18 | 52.14620 | 43.78516 | 30861 ft | 457 kts | 156° |
| 2026-04-20 23:18 | 52.08841 | 43.82614 | 30861 ft | 457 kts | 156° |
| 2026-04-20 23:19 | 52.03007 | 43.86739 | 30862 ft | 457 kts | 156° |
| 2026-04-20 23:19 | 51.97217 | 43.90821 | 30861 ft | 457 kts | 156° |
| 2026-04-20 23:20 | 51.91385 | 43.94922 | 30864 ft | 457 kts | 156° |
| 2026-04-20 23:20 | 51.85576 | 43.98980 | 30874 ft | 456 kts | 156° |
| 2026-04-20 23:21 | 51.79748 | 44.03041 | 30866 ft | 457 kts | 156° |
| 2026-04-20 23:21 | 51.73926 | 44.07097 | 30865 ft | 457 kts | 156° |
| 2026-04-20 23:22 | 51.68137 | 44.11121 | 30860 ft | 457 kts | 156° |
| 2026-04-20 23:22 | 51.62312 | 44.15159 | 30937 ft | 454 kts | 156° |
| 2026-04-20 23:23 | 51.59452 | 44.17137 | 31268 ft | 447 kts | 156° |
| 2026-04-20 23:23 | 51.56612 | 44.19099 | 31552 ft | 442 kts | 156° |
| 2026-04-20 23:23 | 51.53925 | 44.20953 | 31796 ft | 437 kts | 156° |
| 2026-04-20 23:23 | 51.51122 | 44.22884 | 32028 ft | 434 kts | 156° |
| 2026-04-20 23:24 | 51.48391 | 44.24764 | 32235 ft | 431 kts | 156° |
| 2026-04-20 23:24 | 51.45626 | 44.26664 | 32429 ft | 429 kts | 156° |
| 2026-04-20 23:24 | 51.42909 | 44.28529 | 32609 ft | 427 kts | 156° |
| 2026-04-20 23:24 | 51.40183 | 44.30397 | 32779 ft | 425 kts | 156° |
| 2026-04-20 23:25 | 51.34701 | 44.34147 | 32780 ft | 431 kts | 156° |
| 2026-04-20 23:25 | 51.29155 | 44.37931 | 32774 ft | 435 kts | 156° |
| 2026-04-20 23:26 | 51.23591 | 44.41718 | 32773 ft | 439 kts | 156° |
| 2026-04-20 23:26 | 51.17932 | 44.45558 | 32773 ft | 441 kts | 156° |
| 2026-04-20 23:27 | 51.15045 | 44.47106 | 32771 ft | 441 kts | 168° |
| 2026-04-20 23:27 | 51.12003 | 44.47566 | 32780 ft | 441 kts | 182° |
| 2026-04-20 23:27 | 51.05917 | 44.46372 | 32772 ft | 443 kts | 186° |
| 2026-04-20 23:28 | 50.99784 | 44.45440 | 32775 ft | 445 kts | 184° |
| 2026-04-20 23:28 | 50.93632 | 44.44805 | 32780 ft | 446 kts | 183° |
| 2026-04-20 23:29 | 50.87431 | 44.44223 | 32757 ft | 447 kts | 183° |
| 2026-04-20 23:29 | 50.81205 | 44.43646 | 32774 ft | 448 kts | 183° |
| 2026-04-20 23:30 | 50.75035 | 44.43075 | 32775 ft | 448 kts | 183° |
| 2026-04-20 23:30 | 50.68779 | 44.42497 | 32771 ft | 449 kts | 183° |
| 2026-04-20 23:31 | 50.62577 | 44.41925 | 32769 ft | 449 kts | 183° |
| 2026-04-20 23:31 | 50.56350 | 44.41352 | 32773 ft | 449 kts | 183° |
| 2026-04-20 23:32 | 50.50128 | 44.40781 | 32776 ft | 449 kts | 183° |
| 2026-04-20 23:32 | 50.43881 | 44.40209 | 32774 ft | 449 kts | 183° |
| 2026-04-20 23:33 | 50.37656 | 44.39641 | 32807 ft | 449 kts | 183° |
| 2026-04-20 23:33 | 50.31464 | 44.39077 | 32907 ft | 447 kts | 183° |
| 2026-04-20 23:34 | 50.25265 | 44.38515 | 32990 ft | 446 kts | 183° |
| 2026-04-20 23:34 | 50.19097 | 44.37956 | 32976 ft | 447 kts | 183° |
| 2026-04-20 23:35 | 50.09889 | 44.37125 | 32982 ft | 448 kts | 183° |
| 2026-04-20 23:36 | 50.03715 | 44.36570 | 32979 ft | 449 kts | 183° |
| 2026-04-20 23:36 | 49.97499 | 44.36012 | 32978 ft | 449 kts | 183° |
| 2026-04-20 23:37 | 49.91259 | 44.35453 | 32981 ft | 449 kts | 183° |
| 2026-04-20 23:37 | 49.85013 | 44.34898 | 32991 ft | 449 kts | 183° |
| 2026-04-20 23:38 | 49.78772 | 44.34343 | 32982 ft | 449 kts | 183° |
| 2026-04-20 23:38 | 49.72561 | 44.33792 | 32980 ft | 450 kts | 183° |
| 2026-04-20 23:39 | 49.66293 | 44.33237 | 32978 ft | 450 kts | 183° |
| 2026-04-20 23:39 | 49.60057 | 44.32686 | 32973 ft | 450 kts | 183° |
| 2026-04-20 23:40 | 49.53825 | 44.32258 | 32989 ft | 449 kts | 179° |
| 2026-04-20 23:40 | 49.47609 | 44.32544 | 32979 ft | 450 kts | 178° |
| 2026-04-20 23:41 | 49.41330 | 44.32773 | 32982 ft | 450 kts | 179° |
| 2026-04-20 23:41 | 49.35104 | 44.32940 | 32984 ft | 450 kts | 179° |
| 2026-04-20 23:42 | 49.28854 | 44.33096 | 32983 ft | 450 kts | 179° |
| 2026-04-20 23:42 | 49.22619 | 44.33249 | 32976 ft | 451 kts | 179° |
| 2026-04-20 23:43 | 49.16327 | 44.33403 | 32979 ft | 451 kts | 179° |
| 2026-04-20 23:43 | 49.10090 | 44.33556 | 32980 ft | 451 kts | 179° |
| 2026-04-20 23:44 | 49.03821 | 44.33710 | 32979 ft | 451 kts | 179° |
| 2026-04-20 23:44 | 48.97590 | 44.33862 | 32980 ft | 451 kts | 179° |
| 2026-04-20 23:45 | 48.91315 | 44.34014 | 32984 ft | 451 kts | 179° |
| 2026-04-20 23:45 | 48.85049 | 44.34166 | 32991 ft | 451 kts | 179° |
| 2026-04-20 23:46 | 48.78757 | 44.34317 | 32980 ft | 451 kts | 179° |
| 2026-04-20 23:46 | 48.72528 | 44.34351 | 32979 ft | 451 kts | 180° |
| 2026-04-20 23:47 | 48.66246 | 44.34298 | 32979 ft | 451 kts | 180° |
| 2026-04-20 23:47 | 48.60070 | 44.34267 | 32978 ft | 451 kts | 180° |
| 2026-04-20 23:48 | 48.53780 | 44.34242 | 32982 ft | 451 kts | 180° |
| 2026-04-20 23:48 | 48.47542 | 44.34217 | 32981 ft | 451 kts | 180° |
| 2026-04-20 23:49 | 48.41246 | 44.34194 | 32983 ft | 452 kts | 180° |
| 2026-04-20 23:49 | 48.34997 | 44.34170 | 32985 ft | 452 kts | 180° |
| 2026-04-20 23:50 | 48.28722 | 44.34146 | 32983 ft | 452 kts | 180° |
| 2026-04-20 23:50 | 48.22452 | 44.34123 | 32976 ft | 452 kts | 180° |
| 2026-04-20 23:51 | 48.16166 | 44.34100 | 32974 ft | 452 kts | 180° |
| 2026-04-20 23:51 | 48.09894 | 44.34076 | 32980 ft | 452 kts | 180° |
| 2026-04-20 23:52 | 48.03581 | 44.34052 | 32979 ft | 452 kts | 180° |
| 2026-04-20 23:52 | 47.97319 | 44.34029 | 32983 ft | 452 kts | 180° |
| 2026-04-20 23:53 | 47.91053 | 44.34012 | 32986 ft | 452 kts | 179° |
| 2026-04-20 23:53 | 47.84731 | 44.34102 | 32991 ft | 452 kts | 179° |
| 2026-04-20 23:54 | 47.78461 | 44.34193 | 32978 ft | 452 kts | 179° |
| 2026-04-20 23:54 | 47.72179 | 44.34273 | 32975 ft | 453 kts | 179° |
| 2026-04-20 23:55 | 47.65890 | 44.34352 | 32978 ft | 453 kts | 179° |
| 2026-04-20 23:55 | 47.59591 | 44.34431 | 32976 ft | 453 kts | 179° |
| 2026-04-20 23:56 | 47.53334 | 44.34508 | 32976 ft | 453 kts | 179° |
| 2026-04-20 23:56 | 47.46999 | 44.34587 | 32983 ft | 453 kts | 179° |
| 2026-04-20 23:57 | 47.40736 | 44.34665 | 32980 ft | 453 kts | 179° |
| 2026-04-20 23:57 | 47.34446 | 44.34742 | 33051 ft | 452 kts | 179° |
| 2026-04-20 23:58 | 47.28184 | 44.34819 | 33041 ft | 452 kts | 179° |
| 2026-04-20 23:58 | 47.21909 | 44.34896 | 33033 ft | 453 kts | 179° |
| 2026-04-20 23:59 | 47.15705 | 44.34972 | 33035 ft | 453 kts | 179° |
| 2026-04-20 23:59 | 47.09450 | 44.35049 | 33033 ft | 453 kts | 179° |
| 2026-04-21 00:00 | 47.03115 | 44.35126 | 33040 ft | 453 kts | 179° |
| 2026-04-21 00:00 | 46.96825 | 44.35202 | 33040 ft | 454 kts | 179° |
| 2026-04-21 00:01 | 46.90545 | 44.35263 | 33042 ft | 454 kts | 179° |
| 2026-04-21 00:01 | 46.84254 | 44.35280 | 33048 ft | 454 kts | 179° |
| 2026-04-21 00:02 | 46.77948 | 44.35302 | 33043 ft | 454 kts | 179° |
| 2026-04-21 00:02 | 46.71610 | 44.35327 | 33041 ft | 454 kts | 179° |
| 2026-04-21 00:03 | 46.65331 | 44.35352 | 33039 ft | 454 kts | 179° |
| 2026-04-21 00:03 | 46.59033 | 44.35378 | 33037 ft | 454 kts | 179° |
| 2026-04-21 00:04 | 46.52722 | 44.35403 | 33041 ft | 454 kts | 179° |
| 2026-04-21 00:04 | 46.46390 | 44.35429 | 33039 ft | 454 kts | 179° |
| 2026-04-21 00:05 | 46.40133 | 44.35149 | 33041 ft | 453 kts | 190° |
| 2026-04-21 00:05 | 46.37089 | 44.33847 | 33045 ft | 452 kts | 204° |
| 2026-04-21 00:05 | 46.34367 | 44.31594 | 33045 ft | 451 kts | 217° |
| 2026-04-21 00:05 | 46.32101 | 44.28539 | 33045 ft | 451 kts | 230° |
| 2026-04-21 00:06 | 46.30345 | 44.24813 | 33057 ft | 450 kts | 240° |
| 2026-04-21 00:06 | 46.27087 | 44.17083 | 33050 ft | 452 kts | 235° |
| 2026-04-21 00:07 | 46.23363 | 44.09703 | 33035 ft | 453 kts | 232° |
| 2026-04-21 00:07 | 46.19523 | 44.02522 | 33035 ft | 454 kts | 232° |
| 2026-04-21 00:08 | 46.15633 | 43.95321 | 33038 ft | 454 kts | 232° |
| 2026-04-21 00:08 | 46.11759 | 43.88173 | 33040 ft | 455 kts | 232° |
| 2026-04-21 00:09 | 46.07856 | 43.80989 | 33040 ft | 455 kts | 232° |
| 2026-04-21 00:09 | 46.03950 | 43.73818 | 33044 ft | 455 kts | 232° |
| 2026-04-21 00:09 | 46.01991 | 43.70227 | 33275 ft | 448 kts | 232° |
| 2026-04-21 00:10 | 46.00126 | 43.66814 | 33883 ft | 435 kts | 232° |
| 2026-04-21 00:10 | 45.98215 | 43.63390 | 34025 ft | 433 kts | 231° |
| 2026-04-21 00:10 | 45.96385 | 43.60181 | 34029 ft | 436 kts | 231° |
| 2026-04-21 00:11 | 45.92498 | 43.53376 | 34023 ft | 440 kts | 231° |
| 2026-04-21 00:11 | 45.88632 | 43.46607 | 34012 ft | 443 kts | 231° |
| 2026-04-21 00:12 | 45.84691 | 43.39758 | 34026 ft | 445 kts | 231° |
| 2026-04-21 00:12 | 45.80742 | 43.32869 | 34015 ft | 447 kts | 230° |
| 2026-04-21 00:13 | 45.76811 | 43.25990 | 34025 ft | 449 kts | 230° |
| 2026-04-21 00:13 | 45.72845 | 43.19084 | 34026 ft | 450 kts | 230° |
| 2026-04-21 00:14 | 45.68885 | 43.12186 | 34027 ft | 450 kts | 230° |
| 2026-04-21 00:14 | 45.64879 | 43.05228 | 34027 ft | 451 kts | 230° |
| 2026-04-21 00:15 | 45.60901 | 42.98338 | 34012 ft | 452 kts | 230° |
| 2026-04-21 00:15 | 45.56906 | 42.91435 | 33999 ft | 452 kts | 230° |
| 2026-04-21 00:16 | 45.52880 | 42.84497 | 33994 ft | 452 kts | 230° |
| 2026-04-21 00:16 | 45.48866 | 42.77597 | 33996 ft | 453 kts | 230° |
| 2026-04-21 00:17 | 45.44850 | 42.70696 | 33998 ft | 453 kts | 231° |
| 2026-04-21 00:17 | 45.41062 | 42.63630 | 33996 ft | 453 kts | 233° |
| 2026-04-21 00:18 | 45.37169 | 42.56565 | 34008 ft | 453 kts | 230° |
| 2026-04-21 00:18 | 45.33112 | 42.49680 | 33998 ft | 453 kts | 230° |
| 2026-04-21 00:19 | 45.29082 | 42.42808 | 33993 ft | 453 kts | 231° |
| 2026-04-21 00:19 | 45.25060 | 42.35937 | 33996 ft | 453 kts | 231° |
| 2026-04-21 00:20 | 45.21061 | 42.29094 | 34002 ft | 453 kts | 230° |
| 2026-04-21 00:20 | 45.17039 | 42.22235 | 33997 ft | 454 kts | 230° |
| 2026-04-21 00:21 | 45.12985 | 42.15352 | 34000 ft | 454 kts | 230° |
| 2026-04-21 00:21 | 45.09274 | 42.08183 | 34001 ft | 452 kts | 244° |
| 2026-04-21 00:22 | 45.06975 | 41.99980 | 33994 ft | 453 kts | 249° |
| 2026-04-21 00:22 | 45.04568 | 41.91737 | 34000 ft | 453 kts | 246° |
| 2026-04-21 00:23 | 45.02092 | 41.83740 | 34000 ft | 453 kts | 246° |
| 2026-04-21 00:23 | 44.99535 | 41.75599 | 33996 ft | 454 kts | 246° |
| 2026-04-21 00:24 | 44.96964 | 41.67446 | 33998 ft | 454 kts | 246° |
| 2026-04-21 00:24 | 44.94378 | 41.59274 | 33997 ft | 454 kts | 246° |
| 2026-04-21 00:25 | 44.91818 | 41.51209 | 33998 ft | 454 kts | 246° |
| 2026-04-21 00:25 | 44.89209 | 41.43028 | 33989 ft | 455 kts | 246° |
| 2026-04-21 00:26 | 44.86592 | 41.34922 | 34002 ft | 455 kts | 245° |
| 2026-04-21 00:26 | 44.84043 | 41.26975 | 34000 ft | 455 kts | 245° |
| 2026-04-21 00:27 | 44.81424 | 41.18827 | 33994 ft | 455 kts | 245° |
| 2026-04-21 00:27 | 44.78822 | 41.10751 | 33993 ft | 455 kts | 245° |
| 2026-04-21 00:28 | 44.76200 | 41.02632 | 33995 ft | 455 kts | 245° |
| 2026-04-21 00:28 | 44.73570 | 40.94516 | 33995 ft | 456 kts | 245° |
| 2026-04-21 00:29 | 44.70927 | 40.86406 | 33998 ft | 456 kts | 245° |
| 2026-04-21 00:29 | 44.68296 | 40.78333 | 33999 ft | 456 kts | 245° |
| 2026-04-21 00:30 | 44.65647 | 40.70234 | 33994 ft | 456 kts | 245° |
| 2026-04-21 00:30 | 44.62994 | 40.62177 | 33993 ft | 456 kts | 245° |
| 2026-04-21 00:31 | 44.60336 | 40.54112 | 33995 ft | 456 kts | 245° |
| 2026-04-21 00:31 | 44.57670 | 40.46036 | 34001 ft | 456 kts | 245° |
| 2026-04-21 00:32 | 44.54982 | 40.37931 | 33996 ft | 456 kts | 245° |
| 2026-04-21 00:32 | 44.52522 | 40.30490 | 33992 ft | 456 kts | 245° |